createdAt,value
2023-04-09T13:55:16.352Z,100814.06
2023-04-09T13:57:48.800Z,100810.25
2023-04-09T14:00:20.032Z,100813.38
2023-04-09T14:02:52.506Z,100814.25
2023-04-09T14:05:21.212Z,100819.13
2023-04-09T14:07:49.705Z,100815.85
2023-04-09T14:10:20.194Z,100817.05
2023-04-09T14:12:48.857Z,100821.73
2023-04-09T14:15:19.220Z,100818.11
2023-04-09T14:17:47.844Z,100826.79
2023-04-09T14:20:20.420Z,100818.68
2023-04-09T14:22:50.913Z,100825.27
2023-04-09T14:25:19.322Z,100825.45
2023-04-09T14:30:40.678Z,100819.95
2023-04-09T14:33:29.166Z,100817.67
2023-04-09T14:36:03.919Z,100816.13
2023-04-09T14:38:37.795Z,100810.23
2023-04-09T14:41:07.221Z,100813.69
2023-04-09T14:43:36.403Z,100813.00
2023-04-09T14:46:13.689Z,100808.84
2023-04-09T14:48:47.127Z,100810.41
2023-04-09T14:51:16.814Z,100814.58
2023-04-09T14:53:53.123Z,100810.26
2023-04-09T14:56:22.682Z,100818.71
2023-04-09T14:59:00.789Z,100820.09
2023-04-09T15:01:34.968Z,100823.21
2023-04-09T15:04:23.865Z,100822.16
2023-04-09T15:07:01.425Z,100826.33
2023-04-09T15:09:35.229Z,100821.13
2023-04-09T15:12:03.699Z,100817.68
2023-04-09T15:14:45.023Z,100822.36
2023-04-09T15:17:31.450Z,100817.17
2023-04-09T15:20:11.442Z,100817.00
2023-04-09T15:22:59.888Z,100814.59
2023-04-09T15:25:31.761Z,100812.52
2023-04-09T15:28:02.513Z,100813.58
2023-04-09T15:30:35.630Z,100810.65
2023-04-09T15:33:04.896Z,100814.13
2023-04-09T15:35:39.780Z,100817.42
2023-04-09T15:38:15.685Z,100814.83
2023-04-09T15:41:01.377Z,100814.31
2023-04-09T15:43:30.503Z,100810.52
2023-04-09T15:46:10.920Z,100810.18
2023-04-09T15:48:40.117Z,100805.00
2023-04-09T15:51:28.353Z,100805.00
2023-04-09T15:53:58.346Z,100803.79
2023-04-09T15:56:40.523Z,100803.77
2023-04-09T15:59:14.613Z,100800.85
2023-04-09T16:01:43.286Z,100799.80
2023-04-09T16:04:13.182Z,100802.91
2023-04-09T16:07:02.549Z,100802.05
2023-04-09T16:09:50.604Z,100805.19
2023-04-09T16:12:26.153Z,100806.23
2023-04-09T16:15:08.077Z,100806.73
2023-04-09T16:17:40.909Z,100802.58
2023-04-09T16:20:11.811Z,100806.22
2023-04-09T16:22:45.612Z,100806.23
2023-04-09T16:25:14.545Z,100809.87
2023-04-09T16:27:48.837Z,100806.23
2023-04-09T16:30:23.887Z,100807.45
2023-04-09T16:32:56.907Z,100806.59
2023-04-09T16:35:26.466Z,100804.86
2023-04-09T16:38:09.829Z,100808.15
2023-04-09T16:40:38.362Z,100810.23
2023-04-09T16:43:12.298Z,100806.26
2023-04-09T16:45:40.964Z,100810.77
2023-04-09T16:48:29.501Z,100820.11
2023-04-09T16:51:04.174Z,100817.17
2023-04-09T16:53:38.827Z,100814.55
2023-04-09T16:56:10.948Z,100815.08
2023-04-09T16:58:40.065Z,100819.77
2023-04-09T17:01:09.682Z,100811.96
2023-04-09T17:03:49.781Z,100825.11
2023-04-09T17:06:18.977Z,100816.29
2023-04-09T17:08:48.162Z,100817.67
2023-04-09T17:11:17.262Z,100814.58
2023-04-09T17:13:52.325Z,100821.86
2023-04-09T17:16:25.024Z,100824.27
2023-04-09T17:18:53.716Z,100826.88
2023-04-09T17:21:27.712Z,100824.30
2023-04-09T17:24:02.048Z,100828.79
2023-04-09T17:26:30.695Z,100831.23
2023-04-09T17:29:00.069Z,100829.84
2023-04-09T17:31:28.962Z,100823.44
2023-04-09T17:34:17.536Z,100835.20
2023-04-09T17:36:49.877Z,100839.00
2023-04-09T17:39:25.514Z,100837.80
2023-04-09T17:41:56.632Z,100848.17
2023-04-09T17:44:33.754Z,100845.23
2023-04-09T17:47:12.694Z,100852.84
2023-04-09T17:49:42.785Z,100847.31
2023-04-09T17:52:14.944Z,100849.04
2023-04-09T17:54:46.882Z,100845.59
2023-04-09T17:57:15.702Z,100845.60
2023-04-09T17:59:49.125Z,100847.66
2023-04-09T18:02:17.766Z,100848.02
2023-04-09T18:04:53.340Z,100845.94
2023-04-09T18:07:22.116Z,100843.69
2023-04-09T18:09:53.017Z,100843.88
2023-04-09T18:12:22.079Z,100840.76
2023-04-09T18:15:11.257Z,100833.85
2023-04-09T18:17:41.698Z,100847.33
2023-04-09T18:20:13.798Z,100836.96
2023-04-09T18:22:43.473Z,100843.52
2023-04-09T18:25:19.200Z,100838.00
2023-04-09T18:27:49.004Z,100847.33
2023-04-09T18:30:17.866Z,100844.58
2023-04-09T18:32:48.689Z,100848.02
2023-04-09T18:35:20.496Z,100853.90
2023-04-09T18:37:58.608Z,100858.21
2023-04-09T18:40:43.438Z,100848.37
2023-04-09T18:43:14.847Z,100851.48
2023-04-09T18:45:43.511Z,100854.24
2023-04-09T18:48:18.360Z,100857.70
2023-04-09T18:50:48.609Z,100858.90
2023-04-09T18:53:21.108Z,100859.42
2023-04-09T18:55:49.864Z,100859.94
2023-04-09T18:58:19.106Z,100858.90
2023-04-09T19:00:50.753Z,100858.39
2023-04-09T19:03:19.816Z,100858.73
2023-04-09T19:05:49.010Z,100855.80
2023-04-09T19:08:18.291Z,100852.70
2023-04-09T19:10:47.943Z,100851.48
2023-04-09T19:13:18.828Z,100850.96
2023-04-09T19:15:48.501Z,100844.92
2023-04-09T19:18:18.863Z,100843.37
2023-04-09T19:20:48.527Z,100843.52
2023-04-09T19:23:17.189Z,100846.81
2023-04-09T19:25:55.442Z,100844.23
2023-04-09T19:28:23.879Z,100844.21
2023-04-09T19:30:52.767Z,100847.86
2023-04-09T19:33:25.611Z,100851.81
2023-04-09T19:35:55.054Z,100851.30
2023-04-09T19:38:27.811Z,100849.41
2023-04-09T19:40:56.421Z,100850.77
2023-04-09T19:43:24.901Z,100850.42
2023-04-09T19:45:54.445Z,100844.90
2023-04-09T19:48:23.597Z,100850.08
2023-04-09T19:50:58.282Z,100846.81
2023-04-09T19:53:26.836Z,100845.25
2023-04-09T19:55:55.250Z,100847.67
2023-04-09T19:58:24.292Z,100843.17
2023-04-09T20:00:52.738Z,100843.35
2023-04-09T20:03:25.090Z,100840.75
2023-04-09T20:05:53.834Z,100839.19
2023-04-09T20:08:22.392Z,100839.86
2023-04-09T20:10:53.480Z,100845.04
2023-04-09T20:13:21.841Z,100843.14
2023-04-09T20:15:50.390Z,100841.74
2023-04-09T20:18:20.588Z,100842.05
2023-04-09T20:20:51.265Z,100829.96
2023-04-09T20:23:19.730Z,100844.28
2023-04-09T20:25:57.644Z,100840.81
2023-04-09T20:28:26.247Z,100838.91
2023-04-09T20:30:54.638Z,100836.66
2023-04-09T20:33:22.932Z,100840.94
2023-04-09T20:35:52.496Z,100842.32
2023-04-09T20:38:22.573Z,100837.48
2023-04-09T20:40:52.914Z,100832.80
2023-04-09T20:43:21.538Z,100836.77
2023-04-09T20:45:59.093Z,100837.60
2023-04-09T20:48:31.642Z,100841.20
2023-04-09T20:51:00.042Z,100841.20
2023-04-09T20:53:28.996Z,100839.30
2023-04-09T20:55:57.695Z,100834.97
2023-04-09T20:58:32.302Z,100839.79
2023-04-09T21:01:06.732Z,100838.39
2023-04-09T21:03:36.240Z,100834.75
2023-04-09T21:06:07.558Z,100825.95
2023-04-09T21:08:36.857Z,100823.72
2023-04-09T21:11:05.661Z,100828.20
2023-04-09T21:13:43.405Z,100823.73
2023-04-09T21:16:21.106Z,100825.27
2023-04-09T21:18:50.329Z,100820.27
2023-04-09T21:21:34.608Z,100821.13
2023-04-09T21:24:04.089Z,100823.19
2023-04-09T21:26:48.744Z,100818.70
2023-04-09T21:29:19.835Z,100817.14
2023-04-09T21:31:49.009Z,100819.38
2023-04-09T21:34:17.516Z,100818.88
2023-04-09T21:36:46.798Z,100815.77
2023-04-09T21:39:15.670Z,100818.01
2023-04-09T21:41:44.038Z,100819.04
2023-04-09T21:44:13.623Z,100819.05
2023-04-09T21:46:42.400Z,100818.38
2023-04-09T21:49:10.708Z,100819.24
2023-04-09T21:51:39.071Z,100813.91
2023-04-09T21:54:10.172Z,100818.41
2023-04-09T21:56:39.537Z,100814.83
2023-04-09T21:59:12.637Z,100813.98
2023-04-09T22:01:41.809Z,100814.67
2023-04-09T22:04:10.239Z,100814.70
2023-04-09T22:06:40.333Z,100812.30
2023-04-09T22:09:08.920Z,100809.73
2023-04-09T22:11:41.317Z,100808.19
2023-04-09T22:14:12.300Z,100811.83
2023-04-09T22:16:41.226Z,100808.55
2023-04-09T22:19:09.717Z,100811.13
2023-04-09T22:21:42.214Z,100810.77
2023-04-09T22:24:10.915Z,100809.40
2023-04-09T22:26:41.067Z,100810.26
2023-04-09T22:29:10.477Z,100819.02
2023-04-09T22:31:39.536Z,100825.22
2023-04-09T22:34:19.955Z,100825.54
2023-04-09T22:36:50.127Z,100826.71
2023-04-09T22:39:18.996Z,100822.54
2023-04-09T22:41:47.562Z,100827.18
2023-04-09T22:44:16.189Z,100825.42
2023-04-09T22:46:46.543Z,100824.35
2023-04-09T22:49:14.891Z,100817.95
2023-04-09T22:51:44.695Z,100817.06
2023-04-09T22:54:13.672Z,100813.08
2023-04-09T22:56:42.080Z,100814.27
2023-04-09T22:59:11.292Z,100811.16
2023-04-09T23:01:40.342Z,100813.56
2023-04-09T23:04:11.249Z,100813.88
2023-04-09T23:06:40.848Z,100811.11
2023-04-09T23:09:09.317Z,100811.63
2023-04-09T23:11:48.095Z,100806.45
2023-04-09T23:14:17.372Z,100804.05
2023-04-09T23:16:45.976Z,100803.17
2023-04-09T23:19:16.133Z,100802.50
2023-04-09T23:21:44.552Z,100800.10
2023-04-09T23:24:13.021Z,100801.67
2023-04-09T23:26:43.740Z,100795.46
2023-04-09T23:29:12.273Z,100795.46
2023-04-09T23:31:42.160Z,100793.39
2023-04-09T23:34:10.838Z,100793.02
2023-04-09T23:36:39.307Z,100794.23
2023-04-09T23:39:08.892Z,100793.56
2023-04-09T23:41:38.155Z,100792.37
2023-04-09T23:44:06.589Z,100791.34
2023-04-09T23:46:35.160Z,100791.35
2023-04-09T23:49:03.531Z,100788.77
2023-04-09T23:51:33.624Z,100793.77
2023-04-09T23:54:02.111Z,100789.64
2023-04-09T23:56:31.399Z,100794.98
2023-04-09T23:59:00.138Z,100794.13
